sensor_id;sensor_type;location;lat;lon;timestamp;P1;durP1;ratioP1;P2;durP2;ratioP2
61038;SDS011;46919;45.816;3.104;2023-11-21T00:00:24;2.47;;;0.57;;
61038;SDS011;46919;45.816;3.104;2023-11-21T00:02:50;3.40;;;0.95;;
61038;SDS011;46919;45.816;3.104;2023-11-21T00:05:15;2.90;;;0.70;;
61038;SDS011;46919;45.816;3.104;2023-11-21T00:07:41;3.03;;;0.80;;
61038;SDS011;46919;45.816;3.104;2023-11-21T00:10:07;2.13;;;0.45;;
61038;SDS011;46919;45.816;3.104;2023-11-21T00:12:35;4.50;;;0.70;;
61038;SDS011;46919;45.816;3.104;2023-11-21T00:15:00;4.18;;;1.10;;
61038;SDS011;46919;45.816;3.104;2023-11-21T00:17:26;2.88;;;0.60;;
61038;SDS011;46919;45.816;3.104;2023-11-21T00:19:52;2.30;;;0.70;;
61038;SDS011;46919;45.816;3.104;2023-11-21T00:22:17;3.65;;;0.80;;
61038;SDS011;46919;45.816;3.104;2023-11-21T00:24:43;6.55;;;0.98;;
61038;SDS011;46919;45.816;3.104;2023-11-21T00:27:08;5.32;;;0.60;;
61038;SDS011;46919;45.816;3.104;2023-11-21T00:29:34;3.03;;;0.52;;
61038;SDS011;46919;45.816;3.104;2023-11-21T00:31:59;1.35;;;0.40;;
61038;SDS011;46919;45.816;3.104;2023-11-21T00:34:24;5.70;;;2.00;;
61038;SDS011;46919;45.816;3.104;2023-11-21T00:36:50;5.07;;;1.00;;
61038;SDS011;46919;45.816;3.104;2023-11-21T00:39:15;1.85;;;0.50;;
61038;SDS011;46919;45.816;3.104;2023-11-21T00:41:41;2.08;;;0.70;;
61038;SDS011;46919;45.816;3.104;2023-11-21T00:44:07;4.82;;;0.93;;
61038;SDS011;46919;45.816;3.104;2023-11-21T00:46:32;3.70;;;0.82;;
61038;SDS011;46919;45.816;3.104;2023-11-21T00:48:57;4.00;;;0.60;;
61038;SDS011;46919;45.816;3.104;2023-11-21T00:51:23;4.47;;;0.50;;
61038;SDS011;46919;45.816;3.104;2023-11-21T00:53:49;3.80;;;0.80;;
61038;SDS011;46919;45.816;3.104;2023-11-21T00:56:14;5.22;;;0.63;;
61038;SDS011;46919;45.816;3.104;2023-11-21T00:58:40;4.07;;;0.50;;
61038;SDS011;46919;45.816;3.104;2023-11-21T01:01:11;4.25;;;0.73;;
61038;SDS011;46919;45.816;3.104;2023-11-21T01:03:37;3.28;;;1.13;;
61038;SDS011;46919;45.816;3.104;2023-11-21T01:06:02;15.90;;;6.47;;
61038;SDS011;46919;45.816;3.104;2023-11-21T01:08:28;5.15;;;1.42;;
61038;SDS011;46919;45.816;3.104;2023-11-21T01:10:53;2.60;;;0.90;;
61038;SDS011;46919;45.816;3.104;2023-11-21T01:13:19;3.22;;;0.80;;
61038;SDS011;46919;45.816;3.104;2023-11-21T01:15:45;2.55;;;0.70;;
61038;SDS011;46919;45.816;3.104;2023-11-21T01:18:11;4.15;;;0.80;;
61038;SDS011;46919;45.816;3.104;2023-11-21T01:20:36;1.45;;;0.50;;
61038;SDS011;46919;45.816;3.104;2023-11-21T01:23:02;0.85;;;0.35;;
61038;SDS011;46919;45.816;3.104;2023-11-21T01:25:27;0.38;;;0.20;;
61038;SDS011;46919;45.816;3.104;2023-11-21T01:27:52;0.77;;;0.30;;
61038;SDS011;46919;45.816;3.104;2023-11-21T01:30:18;2.45;;;0.40;;
61038;SDS011;46919;45.816;3.104;2023-11-21T01:32:43;2.53;;;0.28;;
61038;SDS011;46919;45.816;3.104;2023-11-21T01:35:09;1.35;;;0.25;;
61038;SDS011;46919;45.816;3.104;2023-11-21T01:37:35;1.85;;;0.30;;
61038;SDS011;46919;45.816;3.104;2023-11-21T01:40:01;0.90;;;0.20;;
61038;SDS011;46919;45.816;3.104;2023-11-21T01:42:30;0.57;;;0.15;;
61038;SDS011;46919;45.816;3.104;2023-11-21T01:44:55;0.85;;;0.20;;
61038;SDS011;46919;45.816;3.104;2023-11-21T01:47:21;0.43;;;0.20;;
61038;SDS011;46919;45.816;3.104;2023-11-21T01:49:46;0.52;;;0.10;;
61038;SDS011;46919;45.816;3.104;2023-11-21T01:52:13;0.63;;;0.10;;
61038;SDS011;46919;45.816;3.104;2023-11-21T01:54:39;0.68;;;0.10;;
61038;SDS011;46919;45.816;3.104;2023-11-21T01:57:06;0.47;;;0.10;;
61038;SDS011;46919;45.816;3.104;2023-11-21T01:59:35;0.35;;;0.10;;
61038;SDS011;46919;45.816;3.104;2023-11-21T02:02:03;0.82;;;0.20;;
61038;SDS011;46919;45.816;3.104;2023-11-21T02:04:34;0.63;;;0.10;;
61038;SDS011;46919;45.816;3.104;2023-11-21T02:07:01;1.02;;;0.10;;
61038;SDS011;46919;45.816;3.104;2023-11-21T02:09:30;0.20;;;0.10;;
61038;SDS011;46919;45.816;3.104;2023-11-21T02:11:56;1.80;;;0.20;;
61038;SDS011;46919;45.816;3.104;2023-11-21T02:14:23;0.20;;;0.10;;
61038;SDS011;46919;45.816;3.104;2023-11-21T02:16:51;0.10;;;0.00;;
61038;SDS011;46919;45.816;3.104;2023-11-21T02:19:18;0.32;;;0.15;;
61038;SDS011;46919;45.816;3.104;2023-11-21T02:21:47;0.75;;;0.10;;
61038;SDS011;46919;45.816;3.104;2023-11-21T02:24:14;1.20;;;0.20;;
61038;SDS011;46919;45.816;3.104;2023-11-21T02:26:40;0.82;;;0.10;;
61038;SDS011;46919;45.816;3.104;2023-11-21T02:29:06;0.43;;;0.10;;
61038;SDS011;46919;45.816;3.104;2023-11-21T02:31:35;1.70;;;0.38;;
61038;SDS011;46919;45.816;3.104;2023-11-21T02:34:02;0.68;;;0.22;;
61038;SDS011;46919;45.816;3.104;2023-11-21T02:36:28;0.63;;;0.20;;
61038;SDS011;46919;45.816;3.104;2023-11-21T02:38:53;0.20;;;0.10;;
61038;SDS011;46919;45.816;3.104;2023-11-21T02:41:18;0.30;;;0.10;;
61038;SDS011;46919;45.816;3.104;2023-11-21T02:43:44;1.08;;;0.30;;
61038;SDS011;46919;45.816;3.104;2023-11-21T02:46:09;0.45;;;0.13;;
61038;SDS011;46919;45.816;3.104;2023-11-21T02:48:35;0.60;;;0.03;;
61038;SDS011;46919;45.816;3.104;2023-11-21T02:51:01;0.95;;;0.05;;
61038;SDS011;46919;45.816;3.104;2023-11-21T02:53:26;0.10;;;0.10;;
61038;SDS011;46919;45.816;3.104;2023-11-21T02:55:51;0.15;;;0.10;;
61038;SDS011;46919;45.816;3.104;2023-11-21T02:58:17;0.80;;;0.10;;
61038;SDS011;46919;45.816;3.104;2023-11-21T03:00:42;0.22;;;0.10;;
61038;SDS011;46919;45.816;3.104;2023-11-21T03:03:08;0.70;;;0.10;;
61038;SDS011;46919;45.816;3.104;2023-11-21T03:05:33;0.28;;;0.15;;
61038;SDS011;46919;45.816;3.104;2023-11-21T03:08:00;0.32;;;0.08;;
61038;SDS011;46919;45.816;3.104;2023-11-21T03:10:26;0.10;;;0.10;;
61038;SDS011;46919;45.816;3.104;2023-11-21T03:12:52;0.52;;;0.20;;
61038;SDS011;46919;45.816;3.104;2023-11-21T03:15:17;0.25;;;0.10;;
61038;SDS011;46919;45.816;3.104;2023-11-21T03:17:43;0.20;;;0.10;;
61038;SDS011;46919;45.816;3.104;2023-11-21T03:20:08;1.55;;;0.20;;
61038;SDS011;46919;45.816;3.104;2023-11-21T03:22:36;1.38;;;0.10;;
61038;SDS011;46919;45.816;3.104;2023-11-21T03:25:02;0.90;;;0.30;;
61038;SDS011;46919;45.816;3.104;2023-11-21T03:27:28;0.22;;;0.10;;
61038;SDS011;46919;45.816;3.104;2023-11-21T03:29:53;0.68;;;0.30;;
61038;SDS011;46919;45.816;3.104;2023-11-21T03:32:19;0.10;;;0.10;;
61038;SDS011;46919;45.816;3.104;2023-11-21T03:34:55;0.50;;;0.30;;
61038;SDS011;46919;45.816;3.104;2023-11-21T03:37:22;0.43;;;0.28;;
61038;SDS011;46919;45.816;3.104;2023-11-21T03:39:48;1.95;;;0.30;;
61038;SDS011;46919;45.816;3.104;2023-11-21T03:42:14;0.60;;;0.30;;
61038;SDS011;46919;45.816;3.104;2023-11-21T03:44:39;1.00;;;0.30;;
61038;SDS011;46919;45.816;3.104;2023-11-21T03:47:05;0.55;;;0.20;;
61038;SDS011;46919;45.816;3.104;2023-11-21T03:49:30;1.17;;;0.10;;
61038;SDS011;46919;45.816;3.104;2023-11-21T03:51:56;0.20;;;0.10;;
61038;SDS011;46919;45.816;3.104;2023-11-21T03:54:21;1.55;;;0.40;;
61038;SDS011;46919;45.816;3.104;2023-11-21T03:56:46;0.75;;;0.30;;
61038;SDS011;46919;45.816;3.104;2023-11-21T03:59:12;0.77;;;0.30;;
61038;SDS011;46919;45.816;3.104;2023-11-21T04:01:37;0.68;;;0.17;;
61038;SDS011;46919;45.816;3.104;2023-11-21T04:04:03;0.73;;;0.20;;
61038;SDS011;46919;45.816;3.104;2023-11-21T04:06:29;0.75;;;0.20;;
61038;SDS011;46919;45.816;3.104;2023-11-21T04:08:54;0.98;;;0.40;;
61038;SDS011;46919;45.816;3.104;2023-11-21T04:11:20;0.55;;;0.20;;
61038;SDS011;46919;45.816;3.104;2023-11-21T04:13:45;2.45;;;1.60;;
61038;SDS011;46919;45.816;3.104;2023-11-21T04:16:12;1.83;;;0.65;;
61038;SDS011;46919;45.816;3.104;2023-11-21T04:18:38;1.15;;;0.50;;
61038;SDS011;46919;45.816;3.104;2023-11-21T04:21:04;3.05;;;0.50;;
61038;SDS011;46919;45.816;3.104;2023-11-21T04:23:30;4.75;;;0.82;;
61038;SDS011;46919;45.816;3.104;2023-11-21T04:25:57;0.93;;;0.52;;
61038;SDS011;46919;45.816;3.104;2023-11-21T04:28:23;5.25;;;0.80;;
61038;SDS011;46919;45.816;3.104;2023-11-21T04:30:49;1.83;;;0.63;;
61038;SDS011;46919;45.816;3.104;2023-11-21T04:33:15;2.20;;;0.73;;
61038;SDS011;46919;45.816;3.104;2023-11-21T04:35:41;3.38;;;1.02;;
61038;SDS011;46919;45.816;3.104;2023-11-21T04:38:06;2.03;;;0.68;;
61038;SDS011;46919;45.816;3.104;2023-11-21T04:40:32;1.80;;;0.60;;
61038;SDS011;46919;45.816;3.104;2023-11-21T04:42:57;2.28;;;0.70;;
61038;SDS011;46919;45.816;3.104;2023-11-21T04:45:23;1.73;;;0.77;;
61038;SDS011;46919;45.816;3.104;2023-11-21T04:47:48;3.10;;;0.90;;
61038;SDS011;46919;45.816;3.104;2023-11-21T04:50:14;1.00;;;0.60;;
61038;SDS011;46919;45.816;3.104;2023-11-21T04:52:39;1.88;;;1.00;;
61038;SDS011;46919;45.816;3.104;2023-11-21T04:55:05;1.58;;;0.65;;
61038;SDS011;46919;45.816;3.104;2023-11-21T04:57:34;3.00;;;0.70;;
61038;SDS011;46919;45.816;3.104;2023-11-21T05:00:00;2.33;;;0.68;;
61038;SDS011;46919;45.816;3.104;2023-11-21T05:02:25;0.90;;;0.60;;
61038;SDS011;46919;45.816;3.104;2023-11-21T05:04:51;2.58;;;0.80;;
61038;SDS011;46919;45.816;3.104;2023-11-21T05:07:16;4.13;;;1.02;;
61038;SDS011;46919;45.816;3.104;2023-11-21T05:09:42;1.85;;;0.90;;
61038;SDS011;46919;45.816;3.104;2023-11-21T05:12:09;5.45;;;1.30;;
61038;SDS011;46919;45.816;3.104;2023-11-21T05:14:35;2.75;;;1.30;;
61038;SDS011;46919;45.816;3.104;2023-11-21T05:17:00;4.95;;;2.03;;
61038;SDS011;46919;45.816;3.104;2023-11-21T05:19:26;4.45;;;1.92;;
61038;SDS011;46919;45.816;3.104;2023-11-21T05:21:52;4.60;;;2.45;;
61038;SDS011;46919;45.816;3.104;2023-11-21T05:24:17;6.95;;;2.83;;
61038;SDS011;46919;45.816;3.104;2023-11-21T05:26:43;5.82;;;2.88;;
61038;SDS011;46919;45.816;3.104;2023-11-21T05:29:08;7.15;;;3.35;;
61038;SDS011;46919;45.816;3.104;2023-11-21T05:31:35;9.02;;;4.53;;
61038;SDS011;46919;45.816;3.104;2023-11-21T05:34:01;8.68;;;4.32;;
61038;SDS011;46919;45.816;3.104;2023-11-21T05:36:26;5.57;;;3.13;;
61038;SDS011;46919;45.816;3.104;2023-11-21T05:38:52;5.28;;;2.78;;
61038;SDS011;46919;45.816;3.104;2023-11-21T05:41:17;4.93;;;2.53;;
61038;SDS011;46919;45.816;3.104;2023-11-21T05:43:42;4.43;;;2.60;;
61038;SDS011;46919;45.816;3.104;2023-11-21T05:46:08;4.80;;;1.95;;
61038;SDS011;46919;45.816;3.104;2023-11-21T05:48:34;4.88;;;2.30;;
61038;SDS011;46919;45.816;3.104;2023-11-21T05:51:02;5.35;;;2.00;;
61038;SDS011;46919;45.816;3.104;2023-11-21T05:53:29;5.40;;;2.33;;
61038;SDS011;46919;45.816;3.104;2023-11-21T05:55:55;5.00;;;1.73;;
61038;SDS011;46919;45.816;3.104;2023-11-21T05:58:20;4.63;;;1.92;;
61038;SDS011;46919;45.816;3.104;2023-11-21T06:00:46;4.50;;;1.60;;
61038;SDS011;46919;45.816;3.104;2023-11-21T06:03:11;2.92;;;1.00;;
61038;SDS011;46919;45.816;3.104;2023-11-21T06:05:37;2.90;;;0.90;;
61038;SDS011;46919;45.816;3.104;2023-11-21T06:08:02;1.98;;;0.80;;
61038;SDS011;46919;45.816;3.104;2023-11-21T06:10:28;1.50;;;0.50;;
61038;SDS011;46919;45.816;3.104;2023-11-21T06:12:54;2.53;;;0.57;;
61038;SDS011;46919;45.816;3.104;2023-11-21T06:15:20;2.63;;;0.60;;
61038;SDS011;46919;45.816;3.104;2023-11-21T06:17:47;3.90;;;1.40;;
61038;SDS011;46919;45.816;3.104;2023-11-21T06:20:17;3.45;;;1.33;;
61038;SDS011;46919;45.816;3.104;2023-11-21T06:22:43;4.40;;;1.48;;
61038;SDS011;46919;45.816;3.104;2023-11-21T06:25:14;4.20;;;1.23;;
61038;SDS011;46919;45.816;3.104;2023-11-21T06:27:40;3.58;;;1.20;;
61038;SDS011;46919;45.816;3.104;2023-11-21T06:30:07;2.25;;;1.40;;
61038;SDS011;46919;45.816;3.104;2023-11-21T06:32:37;3.88;;;1.27;;
61038;SDS011;46919;45.816;3.104;2023-11-21T06:35:03;6.22;;;1.20;;
61038;SDS011;46919;45.816;3.104;2023-11-21T06:37:29;2.83;;;1.05;;
61038;SDS011;46919;45.816;3.104;2023-11-21T06:39:55;2.88;;;1.70;;
61038;SDS011;46919;45.816;3.104;2023-11-21T06:42:21;4.78;;;2.10;;
61038;SDS011;46919;45.816;3.104;2023-11-21T06:44:47;6.75;;;2.40;;
61038;SDS011;46919;45.816;3.104;2023-11-21T06:47:13;7.70;;;2.30;;
61038;SDS011;46919;45.816;3.104;2023-11-21T06:49:39;6.53;;;2.55;;
61038;SDS011;46919;45.816;3.104;2023-11-21T06:52:06;5.63;;;2.30;;
61038;SDS011;46919;45.816;3.104;2023-11-21T06:54:31;4.13;;;1.77;;
61038;SDS011;46919;45.816;3.104;2023-11-21T06:56:57;4.53;;;2.00;;
61038;SDS011;46919;45.816;3.104;2023-11-21T06:59:23;5.50;;;1.50;;
61038;SDS011;46919;45.816;3.104;2023-11-21T07:01:49;3.13;;;1.50;;
61038;SDS011;46919;45.816;3.104;2023-11-21T07:04:14;2.35;;;1.45;;
61038;SDS011;46919;45.816;3.104;2023-11-21T07:06:40;5.03;;;1.73;;
61038;SDS011;46919;45.816;3.104;2023-11-21T07:09:05;3.47;;;1.63;;
61038;SDS011;46919;45.816;3.104;2023-11-21T07:11:33;6.53;;;1.88;;
61038;SDS011;46919;45.816;3.104;2023-11-21T07:13:59;8.38;;;1.75;;
61038;SDS011;46919;45.816;3.104;2023-11-21T07:16:24;5.15;;;3.13;;
61038;SDS011;46919;45.816;3.104;2023-11-21T07:18:50;8.90;;;3.65;;
61038;SDS011;46919;45.816;3.104;2023-11-21T07:21:16;10.13;;;3.70;;
61038;SDS011;46919;45.816;3.104;2023-11-21T07:23:41;3.83;;;2.60;;
61038;SDS011;46919;45.816;3.104;2023-11-21T07:26:07;5.97;;;2.35;;
61038;SDS011;46919;45.816;3.104;2023-11-21T07:28:34;6.72;;;2.47;;
61038;SDS011;46919;45.816;3.104;2023-11-21T07:30:59;4.18;;;2.47;;
61038;SDS011;46919;45.816;3.104;2023-11-21T07:33:25;4.60;;;2.40;;
61038;SDS011;46919;45.816;3.104;2023-11-21T07:35:50;5.97;;;2.80;;
61038;SDS011;46919;45.816;3.104;2023-11-21T07:38:16;8.38;;;3.80;;
61038;SDS011;46919;45.816;3.104;2023-11-21T07:40:42;8.73;;;4.65;;
61038;SDS011;46919;45.816;3.104;2023-11-21T07:43:08;5.20;;;3.88;;
61038;SDS011;46919;45.816;3.104;2023-11-21T07:45:34;7.97;;;3.75;;
61038;SDS011;46919;45.816;3.104;2023-11-21T07:47:59;6.78;;;3.60;;
61038;SDS011;46919;45.816;3.104;2023-11-21T07:50:28;5.28;;;2.85;;
61038;SDS011;46919;45.816;3.104;2023-11-21T07:52:53;7.97;;;3.28;;
61038;SDS011;46919;45.816;3.104;2023-11-21T07:55:19;6.57;;;2.55;;
61038;SDS011;46919;45.816;3.104;2023-11-21T07:57:45;4.88;;;1.95;;
61038;SDS011;46919;45.816;3.104;2023-11-21T08:00:10;4.32;;;1.70;;
61038;SDS011;46919;45.816;3.104;2023-11-21T08:02:37;5.55;;;1.70;;
61038;SDS011;46919;45.816;3.104;2023-11-21T08:05:04;4.32;;;1.25;;
61038;SDS011;46919;45.816;3.104;2023-11-21T08:07:30;3.95;;;1.17;;
61038;SDS011;46919;45.816;3.104;2023-11-21T08:09:56;2.58;;;1.30;;
61038;SDS011;46919;45.816;3.104;2023-11-21T08:12:21;4.00;;;1.40;;
61038;SDS011;46919;45.816;3.104;2023-11-21T08:14:47;4.18;;;1.40;;
61038;SDS011;46919;45.816;3.104;2023-11-21T08:17:12;5.72;;;1.50;;
61038;SDS011;46919;45.816;3.104;2023-11-21T08:19:39;4.72;;;1.58;;
61038;SDS011;46919;45.816;3.104;2023-11-21T08:22:04;4.80;;;1.10;;
61038;SDS011;46919;45.816;3.104;2023-11-21T08:24:32;4.38;;;1.20;;
61038;SDS011;46919;45.816;3.104;2023-11-21T08:26:58;6.35;;;2.83;;
61038;SDS011;46919;45.816;3.104;2023-11-21T08:29:23;4.25;;;1.88;;
61038;SDS011;46919;45.816;3.104;2023-11-21T08:31:48;4.97;;;2.63;;
61038;SDS011;46919;45.816;3.104;2023-11-21T08:34:14;3.97;;;1.10;;
61038;SDS011;46919;45.816;3.104;2023-11-21T08:36:43;4.72;;;1.70;;
61038;SDS011;46919;45.816;3.104;2023-11-21T08:39:09;5.88;;;1.92;;
61038;SDS011;46919;45.816;3.104;2023-11-21T08:41:35;4.78;;;1.90;;
61038;SDS011;46919;45.816;3.104;2023-11-21T08:44:01;3.75;;;1.50;;
61038;SDS011;46919;45.816;3.104;2023-11-21T08:46:31;4.32;;;1.90;;
61038;SDS011;46919;45.816;3.104;2023-11-21T08:48:58;7.70;;;3.30;;
61038;SDS011;46919;45.816;3.104;2023-11-21T08:51:24;6.15;;;2.22;;
61038;SDS011;46919;45.816;3.104;2023-11-21T08:53:50;4.80;;;2.85;;
61038;SDS011;46919;45.816;3.104;2023-11-21T08:56:15;6.85;;;2.28;;
61038;SDS011;46919;45.816;3.104;2023-11-21T08:58:40;4.50;;;2.60;;
61038;SDS011;46919;45.816;3.104;2023-11-21T09:01:06;6.32;;;3.45;;
61038;SDS011;46919;45.816;3.104;2023-11-21T09:03:32;5.00;;;3.55;;
61038;SDS011;46919;45.816;3.104;2023-11-21T09:05:59;8.57;;;4.40;;
61038;SDS011;46919;45.816;3.104;2023-11-21T09:08:25;5.78;;;2.75;;
61038;SDS011;46919;45.816;3.104;2023-11-21T09:10:53;14.38;;;5.68;;
61038;SDS011;46919;45.816;3.104;2023-11-21T09:13:18;17.20;;;7.53;;
61038;SDS011;46919;45.816;3.104;2023-11-21T09:15:44;7.35;;;3.53;;
61038;SDS011;46919;45.816;3.104;2023-11-21T09:18:12;9.95;;;3.83;;
61038;SDS011;46919;45.816;3.104;2023-11-21T09:20:38;4.85;;;2.08;;
61038;SDS011;46919;45.816;3.104;2023-11-21T09:23:04;4.22;;;2.00;;
61038;SDS011;46919;45.816;3.104;2023-11-21T09:25:29;5.03;;;2.42;;
61038;SDS011;46919;45.816;3.104;2023-11-21T09:27:54;3.55;;;2.00;;
61038;SDS011;46919;45.816;3.104;2023-11-21T09:30:21;4.30;;;1.92;;
61038;SDS011;46919;45.816;3.104;2023-11-21T09:32:46;3.60;;;1.50;;
61038;SDS011;46919;45.816;3.104;2023-11-21T09:35:12;3.13;;;1.98;;
61038;SDS011;46919;45.816;3.104;2023-11-21T09:37:39;4.20;;;2.00;;
61038;SDS011;46919;45.816;3.104;2023-11-21T09:40:04;6.63;;;2.75;;
61038;SDS011;46919;45.816;3.104;2023-11-21T09:42:43;5.25;;;3.42;;
61038;SDS011;46919;45.816;3.104;2023-11-21T09:45:29;3.45;;;1.60;;
61038;SDS011;46919;45.816;3.104;2023-11-21T09:47:59;5.57;;;1.98;;
61038;SDS011;46919;45.816;3.104;2023-11-21T09:50:26;2.90;;;1.52;;
61038;SDS011;46919;45.816;3.104;2023-11-21T09:55:43;3.42;;;1.60;;
61038;SDS011;46919;45.816;3.104;2023-11-21T09:58:11;3.42;;;1.52;;
61038;SDS011;46919;45.816;3.104;2023-11-21T10:00:48;4.57;;;1.40;;
61038;SDS011;46919;45.816;3.104;2023-11-21T10:03:14;3.58;;;1.13;;
61038;SDS011;46919;45.816;3.104;2023-11-21T10:05:44;2.85;;;1.40;;
61038;SDS011;46919;45.816;3.104;2023-11-21T10:08:15;4.68;;;1.23;;
61038;SDS011;46919;45.816;3.104;2023-11-21T10:10:43;3.80;;;2.00;;
61038;SDS011;46919;45.816;3.104;2023-11-21T10:13:11;5.63;;;1.42;;
61038;SDS011;46919;45.816;3.104;2023-11-21T10:15:37;4.10;;;1.27;;
61038;SDS011;46919;45.816;3.104;2023-11-21T10:18:04;2.72;;;1.17;;
61038;SDS011;46919;45.816;3.104;2023-11-21T10:20:31;5.00;;;1.90;;
61038;SDS011;46919;45.816;3.104;2023-11-21T10:22:58;3.67;;;1.67;;
61038;SDS011;46919;45.816;3.104;2023-11-21T10:25:26;4.40;;;2.13;;
61038;SDS011;46919;45.816;3.104;2023-11-21T10:27:55;5.80;;;1.83;;
61038;SDS011;46919;45.816;3.104;2023-11-21T10:30:27;2.67;;;1.33;;
61038;SDS011;46919;45.816;3.104;2023-11-21T10:33:00;2.17;;;1.20;;
61038;SDS011;46919;45.816;3.104;2023-11-21T10:35:38;2.60;;;1.30;;
61038;SDS011;46919;45.816;3.104;2023-11-21T10:38:06;4.63;;;1.15;;
61038;SDS011;46919;45.816;3.104;2023-11-21T10:40:37;3.60;;;0.90;;
61038;SDS011;46919;45.816;3.104;2023-11-21T10:43:07;3.33;;;0.80;;
61038;SDS011;46919;45.816;3.104;2023-11-21T10:45:38;2.25;;;0.88;;
61038;SDS011;46919;45.816;3.104;2023-11-21T10:48:05;2.40;;;1.10;;
61038;SDS011;46919;45.816;3.104;2023-11-21T10:50:43;2.70;;;1.08;;
61038;SDS011;46919;45.816;3.104;2023-11-21T10:53:10;2.60;;;1.00;;
61038;SDS011;46919;45.816;3.104;2023-11-21T10:55:37;3.67;;;0.98;;
61038;SDS011;46919;45.816;3.104;2023-11-21T10:58:03;5.13;;;1.00;;
61038;SDS011;46919;45.816;3.104;2023-11-21T11:00:30;2.03;;;0.90;;
61038;SDS011;46919;45.816;3.104;2023-11-21T11:02:57;4.68;;;1.63;;
61038;SDS011;46919;45.816;3.104;2023-11-21T11:05:24;4.78;;;1.77;;
61038;SDS011;46919;45.816;3.104;2023-11-21T11:07:51;2.60;;;1.27;;
61038;SDS011;46919;45.816;3.104;2023-11-21T11:10:44;3.15;;;1.80;;
61038;SDS011;46919;45.816;3.104;2023-11-21T11:13:12;2.38;;;1.30;;
61038;SDS011;46919;45.816;3.104;2023-11-21T11:15:40;2.47;;;1.65;;
61038;SDS011;46919;45.816;3.104;2023-11-21T11:18:05;3.50;;;1.67;;
61038;SDS011;46919;45.816;3.104;2023-11-21T11:20:35;2.15;;;1.23;;
61038;SDS011;46919;45.816;3.104;2023-11-21T11:28:57;2.05;;;0.90;;
61038;SDS011;46919;45.816;3.104;2023-11-21T11:34:14;1.50;;;0.60;;
61038;SDS011;46919;45.816;3.104;2023-11-21T11:36:47;0.85;;;0.60;;
61038;SDS011;46919;45.816;3.104;2023-11-21T11:42:07;2.83;;;1.33;;
61038;SDS011;46919;45.816;3.104;2023-11-21T11:47:21;1.77;;;0.80;;
61038;SDS011;46919;45.816;3.104;2023-11-21T11:49:59;1.42;;;0.60;;
61038;SDS011;46919;45.816;3.104;2023-11-21T11:52:47;0.60;;;0.38;;
61038;SDS011;46919;45.816;3.104;2023-11-21T11:55:14;0.93;;;0.40;;
61038;SDS011;46919;45.816;3.104;2023-11-21T11:57:45;3.60;;;0.88;;
61038;SDS011;46919;45.816;3.104;2023-11-21T12:02:54;1.83;;;0.70;;
61038;SDS011;46919;45.816;3.104;2023-11-21T12:05:24;1.38;;;0.70;;
61038;SDS011;46919;45.816;3.104;2023-11-21T12:07:57;1.63;;;0.70;;
61038;SDS011;46919;45.816;3.104;2023-11-21T12:10:29;0.65;;;0.30;;
61038;SDS011;46919;45.816;3.104;2023-11-21T12:12:59;3.88;;;0.90;;
61038;SDS011;46919;45.816;3.104;2023-11-21T12:15:26;0.75;;;0.50;;
61038;SDS011;46919;45.816;3.104;2023-11-21T12:17:54;1.60;;;0.50;;
61038;SDS011;46919;45.816;3.104;2023-11-21T12:20:23;1.10;;;0.50;;
61038;SDS011;46919;45.816;3.104;2023-11-21T12:22:50;0.73;;;0.52;;
61038;SDS011;46919;45.816;3.104;2023-11-21T12:25:23;0.93;;;0.80;;
61038;SDS011;46919;45.816;3.104;2023-11-21T12:27:53;2.30;;;0.60;;
61038;SDS011;46919;45.816;3.104;2023-11-21T12:30:20;2.63;;;0.80;;
61038;SDS011;46919;45.816;3.104;2023-11-21T12:32:51;1.67;;;0.55;;
61038;SDS011;46919;45.816;3.104;2023-11-21T12:35:18;0.95;;;0.45;;
61038;SDS011;46919;45.816;3.104;2023-11-21T12:37:46;0.85;;;0.60;;
61038;SDS011;46919;45.816;3.104;2023-11-21T12:40:12;2.20;;;1.17;;
61038;SDS011;46919;45.816;3.104;2023-11-21T12:42:46;2.22;;;0.80;;
61038;SDS011;46919;45.816;3.104;2023-11-21T12:47:51;0.90;;;0.70;;
61038;SDS011;46919;45.816;3.104;2023-11-21T12:50:29;1.23;;;0.50;;
61038;SDS011;46919;45.816;3.104;2023-11-21T12:53:09;0.85;;;0.60;;
61038;SDS011;46919;45.816;3.104;2023-11-21T12:55:41;1.75;;;0.50;;
61038;SDS011;46919;45.816;3.104;2023-11-21T12:58:08;1.23;;;0.57;;
61038;SDS011;46919;45.816;3.104;2023-11-21T13:00:36;1.25;;;0.70;;
61038;SDS011;46919;45.816;3.104;2023-11-21T13:03:10;2.47;;;1.55;;
61038;SDS011;46919;45.816;3.104;2023-11-21T13:05:44;0.73;;;0.50;;
61038;SDS011;46919;45.816;3.104;2023-11-21T13:08:12;2.92;;;0.93;;
61038;SDS011;46919;45.816;3.104;2023-11-21T13:10:41;0.75;;;0.60;;
61038;SDS011;46919;45.816;3.104;2023-11-21T13:13:10;1.88;;;0.47;;
61038;SDS011;46919;45.816;3.104;2023-11-21T13:15:49;0.95;;;0.47;;
61038;SDS011;46919;45.816;3.104;2023-11-21T13:18:16;0.95;;;0.60;;
61038;SDS011;46919;45.816;3.104;2023-11-21T13:20:42;2.78;;;1.55;;
61038;SDS011;46919;45.816;3.104;2023-11-21T13:23:08;3.10;;;1.23;;
61038;SDS011;46919;45.816;3.104;2023-11-21T13:25:37;0.63;;;0.50;;
61038;SDS011;46919;45.816;3.104;2023-11-21T13:28:04;2.35;;;1.20;;
61038;SDS011;46919;45.816;3.104;2023-11-21T13:30:30;2.70;;;0.98;;
61038;SDS011;46919;45.816;3.104;2023-11-21T13:33:04;1.77;;;0.65;;
61038;SDS011;46919;45.816;3.104;2023-11-21T13:35:35;1.27;;;0.50;;
61038;SDS011;46919;45.816;3.104;2023-11-21T13:38:08;1.67;;;0.70;;
61038;SDS011;46919;45.816;3.104;2023-11-21T13:40:35;1.52;;;0.50;;
61038;SDS011;46919;45.816;3.104;2023-11-21T13:43:11;1.58;;;1.00;;
61038;SDS011;46919;45.816;3.104;2023-11-21T13:45:41;1.60;;;1.25;;
61038;SDS011;46919;45.816;3.104;2023-11-21T13:48:09;1.65;;;0.70;;
61038;SDS011;46919;45.816;3.104;2023-11-21T13:50:39;1.65;;;0.82;;
61038;SDS011;46919;45.816;3.104;2023-11-21T13:53:11;2.95;;;1.13;;
61038;SDS011;46919;45.816;3.104;2023-11-21T13:55:47;1.52;;;1.10;;
61038;SDS011;46919;45.816;3.104;2023-11-21T13:58:19;1.52;;;0.70;;
61038;SDS011;46919;45.816;3.104;2023-11-21T14:00:49;1.20;;;0.50;;
61038;SDS011;46919;45.816;3.104;2023-11-21T14:03:24;0.60;;;0.43;;
61038;SDS011;46919;45.816;3.104;2023-11-21T14:05:57;0.57;;;0.30;;
61038;SDS011;46919;45.816;3.104;2023-11-21T14:08:25;1.30;;;0.50;;
61038;SDS011;46919;45.816;3.104;2023-11-21T14:10:53;3.05;;;0.73;;
61038;SDS011;46919;45.816;3.104;2023-11-21T14:13:24;2.38;;;0.40;;
61038;SDS011;46919;45.816;3.104;2023-11-21T14:15:50;1.85;;;0.60;;
61038;SDS011;46919;45.816;3.104;2023-11-21T14:18:19;0.95;;;0.60;;
61038;SDS011;46919;45.816;3.104;2023-11-21T14:20:52;0.63;;;0.52;;
61038;SDS011;46919;45.816;3.104;2023-11-21T14:23:17;0.88;;;0.60;;
61038;SDS011;46919;45.816;3.104;2023-11-21T14:25:43;1.38;;;1.10;;
61038;SDS011;46919;45.816;3.104;2023-11-21T14:28:08;4.63;;;1.40;;
61038;SDS011;46919;45.816;3.104;2023-11-21T14:30:36;2.30;;;1.10;;
61038;SDS011;46919;45.816;3.104;2023-11-21T14:33:06;1.40;;;0.60;;
61038;SDS011;46919;45.816;3.104;2023-11-21T14:35:33;1.40;;;0.70;;
61038;SDS011;46919;45.816;3.104;2023-11-21T14:37:59;1.45;;;1.00;;
61038;SDS011;46919;45.816;3.104;2023-11-21T14:40:25;2.30;;;1.63;;
61038;SDS011;46919;45.816;3.104;2023-11-21T14:42:56;2.28;;;1.70;;
61038;SDS011;46919;45.816;3.104;2023-11-21T14:45:22;3.20;;;1.38;;
61038;SDS011;46919;45.816;3.104;2023-11-21T14:47:51;1.60;;;1.00;;
61038;SDS011;46919;45.816;3.104;2023-11-21T14:50:35;1.98;;;0.73;;
61038;SDS011;46919;45.816;3.104;2023-11-21T14:53:04;2.15;;;1.05;;
61038;SDS011;46919;45.816;3.104;2023-11-21T14:55:31;2.42;;;1.20;;
61038;SDS011;46919;45.816;3.104;2023-11-21T14:58:04;1.77;;;1.17;;
61038;SDS011;46919;45.816;3.104;2023-11-21T15:00:30;1.73;;;1.15;;
61038;SDS011;46919;45.816;3.104;2023-11-21T15:03:16;3.33;;;1.80;;
61038;SDS011;46919;45.816;3.104;2023-11-21T15:06:00;2.33;;;1.83;;
61038;SDS011;46919;45.816;3.104;2023-11-21T15:08:51;4.93;;;2.60;;
61038;SDS011;46919;45.816;3.104;2023-11-21T15:11:24;4.43;;;2.60;;